sensor_id;sensor_type;location;lat;lon;timestamp;temperature;humidity
36660;DHT22;22654;51.054;3.654;2022-12-07T00:00:51;6.20;99.90
36660;DHT22;22654;51.054;3.654;2022-12-07T00:03:17;6.20;99.90
36660;DHT22;22654;51.054;3.654;2022-12-07T00:05:43;6.10;99.90
36660;DHT22;22654;51.054;3.654;2022-12-07T00:08:09;6.10;99.90
36660;DHT22;22654;51.054;3.654;2022-12-07T00:10:35;6.10;99.90
36660;DHT22;22654;51.054;3.654;2022-12-07T00:13:00;6.10;99.90
36660;DHT22;22654;51.054;3.654;2022-12-07T00:15:26;6.10;99.90
36660;DHT22;22654;51.054;3.654;2022-12-07T00:17:52;6.20;99.90
36660;DHT22;22654;51.054;3.654;2022-12-07T00:20:18;6.30;99.90
36660;DHT22;22654;51.054;3.654;2022-12-07T00:22:44;6.40;99.90
36660;DHT22;22654;51.054;3.654;2022-12-07T00:25:10;6.40;99.90
36660;DHT22;22654;51.054;3.654;2022-12-07T00:27:35;6.40;99.90
36660;DHT22;22654;51.054;3.654;2022-12-07T00:30:01;6.30;99.90
36660;DHT22;22654;51.054;3.654;2022-12-07T00:32:27;6.30;99.90
36660;DHT22;22654;51.054;3.654;2022-12-07T00:34:53;6.30;99.90
36660;DHT22;22654;51.054;3.654;2022-12-07T00:37:19;6.30;99.90
36660;DHT22;22654;51.054;3.654;2022-12-07T00:39:46;6.30;99.90
36660;DHT22;22654;51.054;3.654;2022-12-07T00:42:12;6.30;99.90
36660;DHT22;22654;51.054;3.654;2022-12-07T00:44:37;6.00;99.90
36660;DHT22;22654;51.054;3.654;2022-12-07T00:47:03;5.80;99.90
36660;DHT22;22654;51.054;3.654;2022-12-07T00:49:29;5.60;99.90
36660;DHT22;22654;51.054;3.654;2022-12-07T00:51:55;5.50;99.90
36660;DHT22;22654;51.054;3.654;2022-12-07T00:54:21;5.40;99.90
36660;DHT22;22654;51.054;3.654;2022-12-07T00:56:48;5.30;99.90
36660;DHT22;22654;51.054;3.654;2022-12-07T00:59:14;5.30;99.90
36660;DHT22;22654;51.054;3.654;2022-12-07T01:01:40;5.30;99.90
36660;DHT22;22654;51.054;3.654;2022-12-07T01:04:06;5.20;99.90
36660;DHT22;22654;51.054;3.654;2022-12-07T01:06:32;5.00;99.90
36660;DHT22;22654;51.054;3.654;2022-12-07T01:08:59;5.00;99.90
36660;DHT22;22654;51.054;3.654;2022-12-07T01:11:27;4.80;99.90
36660;DHT22;22654;51.054;3.654;2022-12-07T01:13:55;4.70;99.90
36660;DHT22;22654;51.054;3.654;2022-12-07T01:16:23;4.60;99.90
36660;DHT22;22654;51.054;3.654;2022-12-07T01:18:52;4.50;99.90
36660;DHT22;22654;51.054;3.654;2022-12-07T01:21:23;4.40;99.90
36660;DHT22;22654;51.054;3.654;2022-12-07T01:23:50;4.40;99.90
36660;DHT22;22654;51.054;3.654;2022-12-07T01:26:19;4.40;99.90
36660;DHT22;22654;51.054;3.654;2022-12-07T01:28:46;4.40;99.90
36660;DHT22;22654;51.054;3.654;2022-12-07T01:31:15;4.50;99.90
36660;DHT22;22654;51.054;3.654;2022-12-07T01:33:43;4.50;99.90
36660;DHT22;22654;51.054;3.654;2022-12-07T01:36:30;4.50;99.90
36660;DHT22;22654;51.054;3.654;2022-12-07T01:38:59;4.60;99.90
36660;DHT22;22654;51.054;3.654;2022-12-07T01:41:29;4.60;99.90
36660;DHT22;22654;51.054;3.654;2022-12-07T01:44:19;4.60;99.90
36660;DHT22;22654;51.054;3.654;2022-12-07T01:49:23;4.50;99.90
36660;DHT22;22654;51.054;3.654;2022-12-07T01:51:54;4.50;99.90
36660;DHT22;22654;51.054;3.654;2022-12-07T01:54:22;4.40;99.90
36660;DHT22;22654;51.054;3.654;2022-12-07T01:56:53;4.30;99.90
36660;DHT22;22654;51.054;3.654;2022-12-07T01:59:22;4.30;99.90
36660;DHT22;22654;51.054;3.654;2022-12-07T02:01:51;4.20;99.90
36660;DHT22;22654;51.054;3.654;2022-12-07T02:04:17;4.10;99.90
36660;DHT22;22654;51.054;3.654;2022-12-07T02:06:43;4.10;99.90
36660;DHT22;22654;51.054;3.654;2022-12-07T02:09:10;4.20;99.90
36660;DHT22;22654;51.054;3.654;2022-12-07T02:11:36;4.10;99.90
36660;DHT22;22654;51.054;3.654;2022-12-07T02:14:02;4.00;99.90
36660;DHT22;22654;51.054;3.654;2022-12-07T02:16:43;3.90;99.90
36660;DHT22;22654;51.054;3.654;2022-12-07T02:19:39;3.90;99.90
36660;DHT22;22654;51.054;3.654;2022-12-07T02:28:01;3.70;99.90
36660;DHT22;22654;51.054;3.654;2022-12-07T02:30:32;3.60;99.90
36660;DHT22;22654;51.054;3.654;2022-12-07T02:33:28;3.60;99.90
36660;DHT22;22654;51.054;3.654;2022-12-07T02:36:08;3.60;99.90
36660;DHT22;22654;51.054;3.654;2022-12-07T02:41:40;3.90;99.90
36660;DHT22;22654;51.054;3.654;2022-12-07T02:44:11;4.20;99.90
36660;DHT22;22654;51.054;3.654;2022-12-07T02:46:42;4.20;99.90
36660;DHT22;22654;51.054;3.654;2022-12-07T02:49:08;4.30;99.90
36660;DHT22;22654;51.054;3.654;2022-12-07T02:51:39;4.40;99.90
36660;DHT22;22654;51.054;3.654;2022-12-07T02:54:14;4.50;99.90
36660;DHT22;22654;51.054;3.654;2022-12-07T03:02:17;4.80;99.90
36660;DHT22;22654;51.054;3.654;2022-12-07T03:05:12;4.80;99.90
36660;DHT22;22654;51.054;3.654;2022-12-07T03:12:46;4.90;99.90
36660;DHT22;22654;51.054;3.654;2022-12-07T03:15:26;5.40;99.90
36660;DHT22;22654;51.054;3.654;2022-12-07T03:17:54;5.30;99.90
36660;DHT22;22654;51.054;3.654;2022-12-07T03:20:23;5.20;99.90
36660;DHT22;22654;51.054;3.654;2022-12-07T03:22:51;5.20;99.90
36660;DHT22;22654;51.054;3.654;2022-12-07T03:25:18;5.10;99.90
36660;DHT22;22654;51.054;3.654;2022-12-07T03:30:24;4.90;99.90
36660;DHT22;22654;51.054;3.654;2022-12-07T03:35:32;4.70;99.90
36660;DHT22;22654;51.054;3.654;2022-12-07T03:40:49;4.50;99.90
36660;DHT22;22654;51.054;3.654;2022-12-07T03:43:18;4.40;99.90
36660;DHT22;22654;51.054;3.654;2022-12-07T03:45:59;4.40;99.90
36660;DHT22;22654;51.054;3.654;2022-12-07T03:48:36;4.40;99.90
36660;DHT22;22654;51.054;3.654;2022-12-07T03:53:57;4.40;99.90
36660;DHT22;22654;51.054;3.654;2022-12-07T03:56:25;4.30;99.90
36660;DHT22;22654;51.054;3.654;2022-12-07T03:58:52;4.30;99.90
36660;DHT22;22654;51.054;3.654;2022-12-07T04:01:18;4.10;99.90
36660;DHT22;22654;51.054;3.654;2022-12-07T04:03:44;3.90;99.90
36660;DHT22;22654;51.054;3.654;2022-12-07T04:06:11;3.80;99.90
36660;DHT22;22654;51.054;3.654;2022-12-07T04:08:36;3.70;99.90
36660;DHT22;22654;51.054;3.654;2022-12-07T04:11:02;3.70;99.90
36660;DHT22;22654;51.054;3.654;2022-12-07T04:13:28;3.60;99.90
36660;DHT22;22654;51.054;3.654;2022-12-07T04:15:54;3.60;99.90
36660;DHT22;22654;51.054;3.654;2022-12-07T04:18:20;3.70;99.90
36660;DHT22;22654;51.054;3.654;2022-12-07T04:20:46;3.90;99.90
36660;DHT22;22654;51.054;3.654;2022-12-07T04:23:12;4.10;99.90
36660;DHT22;22654;51.054;3.654;2022-12-07T04:25:38;4.20;99.90
36660;DHT22;22654;51.054;3.654;2022-12-07T04:28:04;4.30;99.90
36660;DHT22;22654;51.054;3.654;2022-12-07T04:30:29;4.30;99.90
36660;DHT22;22654;51.054;3.654;2022-12-07T04:32:55;4.40;99.90
36660;DHT22;22654;51.054;3.654;2022-12-07T04:35:21;4.30;99.90
36660;DHT22;22654;51.054;3.654;2022-12-07T04:37:47;4.40;99.90
36660;DHT22;22654;51.054;3.654;2022-12-07T04:40:12;4.30;99.90
36660;DHT22;22654;51.054;3.654;2022-12-07T04:42:39;4.30;99.90
36660;DHT22;22654;51.054;3.654;2022-12-07T04:45:06;4.60;99.90
36660;DHT22;22654;51.054;3.654;2022-12-07T04:47:32;4.70;99.90
36660;DHT22;22654;51.054;3.654;2022-12-07T04:49:58;4.90;99.90
36660;DHT22;22654;51.054;3.654;2022-12-07T04:52:24;4.90;99.90
36660;DHT22;22654;51.054;3.654;2022-12-07T04:54:49;5.20;99.90
36660;DHT22;22654;51.054;3.654;2022-12-07T04:57:15;5.20;99.90
36660;DHT22;22654;51.054;3.654;2022-12-07T04:59:41;5.00;99.90
36660;DHT22;22654;51.054;3.654;2022-12-07T05:02:07;5.00;99.90
36660;DHT22;22654;51.054;3.654;2022-12-07T05:04:33;5.00;99.90
36660;DHT22;22654;51.054;3.654;2022-12-07T05:06:59;5.00;99.90
36660;DHT22;22654;51.054;3.654;2022-12-07T05:09:24;5.00;99.90
36660;DHT22;22654;51.054;3.654;2022-12-07T05:11:50;5.30;99.90
36660;DHT22;22654;51.054;3.654;2022-12-07T05:14:18;6.00;99.90
36660;DHT22;22654;51.054;3.654;2022-12-07T05:16:47;5.30;99.90
36660;DHT22;22654;51.054;3.654;2022-12-07T05:19:15;5.00;99.90
36660;DHT22;22654;51.054;3.654;2022-12-07T05:21:41;4.90;99.90
36660;DHT22;22654;51.054;3.654;2022-12-07T05:24:09;4.80;99.90
36660;DHT22;22654;51.054;3.654;2022-12-07T05:26:36;4.80;99.90
36660;DHT22;22654;51.054;3.654;2022-12-07T05:29:02;4.60;99.90
36660;DHT22;22654;51.054;3.654;2022-12-07T05:31:28;4.30;99.90
36660;DHT22;22654;51.054;3.654;2022-12-07T05:33:54;4.10;99.90
36660;DHT22;22654;51.054;3.654;2022-12-07T05:36:20;4.00;99.90
36660;DHT22;22654;51.054;3.654;2022-12-07T05:38:46;3.80;99.90
36660;DHT22;22654;51.054;3.654;2022-12-07T05:41:15;3.80;99.90
36660;DHT22;22654;51.054;3.654;2022-12-07T05:44:00;3.70;99.90
36660;DHT22;22654;51.054;3.654;2022-12-07T05:46:26;3.50;99.90
36660;DHT22;22654;51.054;3.654;2022-12-07T05:48:52;3.40;99.90
36660;DHT22;22654;51.054;3.654;2022-12-07T05:51:18;3.30;99.90
36660;DHT22;22654;51.054;3.654;2022-12-07T05:53:44;3.20;99.90
36660;DHT22;22654;51.054;3.654;2022-12-07T05:56:10;3.20;99.90
36660;DHT22;22654;51.054;3.654;2022-12-07T05:58:36;3.20;99.90
36660;DHT22;22654;51.054;3.654;2022-12-07T06:01:20;3.30;99.90
36660;DHT22;22654;51.054;3.654;2022-12-07T06:03:46;3.40;99.90
36660;DHT22;22654;51.054;3.654;2022-12-07T06:06:12;3.60;99.90
36660;DHT22;22654;51.054;3.654;2022-12-07T06:08:38;3.60;99.90
36660;DHT22;22654;51.054;3.654;2022-12-07T06:11:03;3.70;99.90
36660;DHT22;22654;51.054;3.654;2022-12-07T06:13:48;3.70;99.90
36660;DHT22;22654;51.054;3.654;2022-12-07T06:16:14;3.80;99.90
36660;DHT22;22654;51.054;3.654;2022-12-07T06:18:40;3.90;99.90
36660;DHT22;22654;51.054;3.654;2022-12-07T06:21:06;3.90;99.90
36660;DHT22;22654;51.054;3.654;2022-12-07T06:23:32;3.80;99.90
36660;DHT22;22654;51.054;3.654;2022-12-07T06:25:58;3.60;99.90
36660;DHT22;22654;51.054;3.654;2022-12-07T06:28:24;3.50;99.90
36660;DHT22;22654;51.054;3.654;2022-12-07T06:30:57;3.50;99.90
36660;DHT22;22654;51.054;3.654;2022-12-07T06:33:23;3.50;99.90
36660;DHT22;22654;51.054;3.654;2022-12-07T06:35:49;3.60;99.90
36660;DHT22;22654;51.054;3.654;2022-12-07T06:38:15;3.70;99.90
36660;DHT22;22654;51.054;3.654;2022-12-07T06:40:41;3.80;99.90
36660;DHT22;22654;51.054;3.654;2022-12-07T06:43:07;3.90;99.90
36660;DHT22;22654;51.054;3.654;2022-12-07T06:45:33;4.10;99.90
36660;DHT22;22654;51.054;3.654;2022-12-07T06:47:59;4.20;99.90
36660;DHT22;22654;51.054;3.654;2022-12-07T06:50:29;4.30;99.90
36660;DHT22;22654;51.054;3.654;2022-12-07T06:52:54;4.40;99.90
36660;DHT22;22654;51.054;3.654;2022-12-07T06:55:20;4.40;99.90
36660;DHT22;22654;51.054;3.654;2022-12-07T06:57:46;4.40;99.90
36660;DHT22;22654;51.054;3.654;2022-12-07T07:00:13;4.40;99.90
36660;DHT22;22654;51.054;3.654;2022-12-07T07:02:39;4.50;99.90
36660;DHT22;22654;51.054;3.654;2022-12-07T07:05:05;4.50;99.90
36660;DHT22;22654;51.054;3.654;2022-12-07T07:07:31;4.50;99.90
36660;DHT22;22654;51.054;3.654;2022-12-07T07:09:57;4.60;99.90
36660;DHT22;22654;51.054;3.654;2022-12-07T07:12:23;4.70;99.90
36660;DHT22;22654;51.054;3.654;2022-12-07T07:14:48;4.60;99.90
36660;DHT22;22654;51.054;3.654;2022-12-07T07:17:14;4.60;99.90
36660;DHT22;22654;51.054;3.654;2022-12-07T07:19:40;4.60;99.90
36660;DHT22;22654;51.054;3.654;2022-12-07T07:22:06;4.60;99.90
36660;DHT22;22654;51.054;3.654;2022-12-07T07:24:32;4.70;99.90
36660;DHT22;22654;51.054;3.654;2022-12-07T07:26:57;4.90;99.90
36660;DHT22;22654;51.054;3.654;2022-12-07T07:29:23;5.10;99.90
36660;DHT22;22654;51.054;3.654;2022-12-07T07:31:49;5.40;99.90
36660;DHT22;22654;51.054;3.654;2022-12-07T07:34:15;5.20;99.90
36660;DHT22;22654;51.054;3.654;2022-12-07T07:36:41;5.20;99.90
36660;DHT22;22654;51.054;3.654;2022-12-07T07:39:06;5.00;99.90
36660;DHT22;22654;51.054;3.654;2022-12-07T07:41:32;4.80;99.90
36660;DHT22;22654;51.054;3.654;2022-12-07T07:43:58;4.70;99.90
36660;DHT22;22654;51.054;3.654;2022-12-07T07:46:24;4.60;99.90
36660;DHT22;22654;51.054;3.654;2022-12-07T07:48:49;4.50;99.90
36660;DHT22;22654;51.054;3.654;2022-12-07T07:51:15;4.50;99.90
36660;DHT22;22654;51.054;3.654;2022-12-07T07:53:41;4.40;99.90
36660;DHT22;22654;51.054;3.654;2022-12-07T07:56:07;4.40;99.90
36660;DHT22;22654;51.054;3.654;2022-12-07T07:58:33;4.40;99.90
36660;DHT22;22654;51.054;3.654;2022-12-07T08:01:06;4.30;99.90
36660;DHT22;22654;51.054;3.654;2022-12-07T08:03:32;4.40;99.90
36660;DHT22;22654;51.054;3.654;2022-12-07T08:05:58;4.40;99.90
36660;DHT22;22654;51.054;3.654;2022-12-07T08:08:24;4.40;99.90
36660;DHT22;22654;51.054;3.654;2022-12-07T08:10:50;4.30;99.90
36660;DHT22;22654;51.054;3.654;2022-12-07T08:13:16;4.30;99.90
36660;DHT22;22654;51.054;3.654;2022-12-07T08:15:48;4.30;99.90
36660;DHT22;22654;51.054;3.654;2022-12-07T08:18:15;4.30;99.90
36660;DHT22;22654;51.054;3.654;2022-12-07T08:20:41;4.40;99.90
36660;DHT22;22654;51.054;3.654;2022-12-07T08:23:08;4.70;99.90
36660;DHT22;22654;51.054;3.654;2022-12-07T08:25:35;4.80;99.90
36660;DHT22;22654;51.054;3.654;2022-12-07T08:28:00;5.00;99.90
36660;DHT22;22654;51.054;3.654;2022-12-07T08:30:28;5.20;99.90
36660;DHT22;22654;51.054;3.654;2022-12-07T08:32:54;5.30;99.90
36660;DHT22;22654;51.054;3.654;2022-12-07T08:35:20;5.50;99.90
36660;DHT22;22654;51.054;3.654;2022-12-07T08:37:46;5.60;99.90
36660;DHT22;22654;51.054;3.654;2022-12-07T08:40:13;5.70;99.90
36660;DHT22;22654;51.054;3.654;2022-12-07T08:42:42;5.80;99.90
36660;DHT22;22654;51.054;3.654;2022-12-07T08:45:15;6.10;99.90
36660;DHT22;22654;51.054;3.654;2022-12-07T08:48:01;6.20;99.90
36660;DHT22;22654;51.054;3.654;2022-12-07T08:50:28;6.30;99.90
36660;DHT22;22654;51.054;3.654;2022-12-07T08:52:56;6.40;99.90
36660;DHT22;22654;51.054;3.654;2022-12-07T08:55:23;6.50;99.90
36660;DHT22;22654;51.054;3.654;2022-12-07T08:57:49;6.50;99.90
36660;DHT22;22654;51.054;3.654;2022-12-07T09:00:16;6.50;99.90
36660;DHT22;22654;51.054;3.654;2022-12-07T09:02:45;6.50;99.90
36660;DHT22;22654;51.054;3.654;2022-12-07T09:05:12;6.40;99.90
36660;DHT22;22654;51.054;3.654;2022-12-07T09:07:42;6.40;99.90
36660;DHT22;22654;51.054;3.654;2022-12-07T09:10:08;6.30;99.90
36660;DHT22;22654;51.054;3.654;2022-12-07T09:12:34;6.20;99.90
36660;DHT22;22654;51.054;3.654;2022-12-07T09:15:00;6.20;99.90
36660;DHT22;22654;51.054;3.654;2022-12-07T09:17:26;6.20;99.90
36660;DHT22;22654;51.054;3.654;2022-12-07T09:19:52;6.50;99.90
36660;DHT22;22654;51.054;3.654;2022-12-07T09:22:18;6.70;99.90
36660;DHT22;22654;51.054;3.654;2022-12-07T09:24:44;6.80;99.90
36660;DHT22;22654;51.054;3.654;2022-12-07T09:27:11;6.90;99.90
36660;DHT22;22654;51.054;3.654;2022-12-07T09:29:37;7.00;99.90
36660;DHT22;22654;51.054;3.654;2022-12-07T09:32:03;7.10;99.90
36660;DHT22;22654;51.054;3.654;2022-12-07T09:34:31;7.20;99.90
36660;DHT22;22654;51.054;3.654;2022-12-07T09:36:58;7.20;99.90
36660;DHT22;22654;51.054;3.654;2022-12-07T09:39:23;7.00;99.90
36660;DHT22;22654;51.054;3.654;2022-12-07T09:41:49;6.90;99.90
36660;DHT22;22654;51.054;3.654;2022-12-07T09:44:23;6.90;99.90
36660;DHT22;22654;51.054;3.654;2022-12-07T09:46:50;7.00;99.90
36660;DHT22;22654;51.054;3.654;2022-12-07T09:49:22;6.90;99.90
36660;DHT22;22654;51.054;3.654;2022-12-07T09:54:26;6.80;99.90
36660;DHT22;22654;51.054;3.654;2022-12-07T09:56:52;6.90;99.90
36660;DHT22;22654;51.054;3.654;2022-12-07T09:59:19;7.00;99.90
36660;DHT22;22654;51.054;3.654;2022-12-07T10:01:49;7.00;99.90
36660;DHT22;22654;51.054;3.654;2022-12-07T10:04:24;7.00;99.90
36660;DHT22;22654;51.054;3.654;2022-12-07T10:06:50;7.10;99.90
36660;DHT22;22654;51.054;3.654;2022-12-07T10:09:18;7.10;99.90
36660;DHT22;22654;51.054;3.654;2022-12-07T10:12:07;7.20;99.90
36660;DHT22;22654;51.054;3.654;2022-12-07T10:14:37;7.20;99.90
36660;DHT22;22654;51.054;3.654;2022-12-07T10:17:30;7.20;99.90
36660;DHT22;22654;51.054;3.654;2022-12-07T10:20:14;7.30;99.90
36660;DHT22;22654;51.054;3.654;2022-12-07T10:22:58;7.30;99.90
36660;DHT22;22654;51.054;3.654;2022-12-07T10:25:27;7.30;99.90
36660;DHT22;22654;51.054;3.654;2022-12-07T10:30:25;7.50;99.90
36660;DHT22;22654;51.054;3.654;2022-12-07T10:32:51;7.50;99.90
36660;DHT22;22654;51.054;3.654;2022-12-07T10:35:24;7.50;99.90
36660;DHT22;22654;51.054;3.654;2022-12-07T10:37:51;7.70;99.90
36660;DHT22;22654;51.054;3.654;2022-12-07T10:40:32;7.70;99.90
36660;DHT22;22654;51.054;3.654;2022-12-07T10:43:03;7.90;99.90
36660;DHT22;22654;51.054;3.654;2022-12-07T10:45:29;8.10;99.90
36660;DHT22;22654;51.054;3.654;2022-12-07T10:51:02;8.60;99.90
36660;DHT22;22654;51.054;3.654;2022-12-07T10:56:32;8.50;99.90
36660;DHT22;22654;51.054;3.654;2022-12-07T10:59:26;8.50;99.90
36660;DHT22;22654;51.054;3.654;2022-12-07T11:13:10;8.00;99.90
36660;DHT22;22654;51.054;3.654;2022-12-07T11:18:24;8.30;99.90
36660;DHT22;22654;51.054;3.654;2022-12-07T11:23:58;8.50;99.90
36660;DHT22;22654;51.054;3.654;2022-12-07T11:32:17;8.50;99.90
36660;DHT22;22654;51.054;3.654;2022-12-07T11:35:24;8.50;99.90
36660;DHT22;22654;51.054;3.654;2022-12-07T11:38:01;8.60;99.90
36660;DHT22;22654;51.054;3.654;2022-12-07T11:40:35;8.70;99.90
36660;DHT22;22654;51.054;3.654;2022-12-07T11:46:12;9.20;99.90
36660;DHT22;22654;51.054;3.654;2022-12-07T11:49:09;9.60;99.90
36660;DHT22;22654;51.054;3.654;2022-12-07T11:51:35;9.80;99.90
36660;DHT22;22654;51.054;3.654;2022-12-07T11:54:11;10.20;99.90
36660;DHT22;22654;51.054;3.654;2022-12-07T11:56:37;10.60;99.90
36660;DHT22;22654;51.054;3.654;2022-12-07T11:59:31;11.00;99.90
36660;DHT22;22654;51.054;3.654;2022-12-07T12:02:15;11.20;99.90
36660;DHT22;22654;51.054;3.654;2022-12-07T12:04:46;11.00;99.90
36660;DHT22;22654;51.054;3.654;2022-12-07T12:07:15;10.80;99.90
36660;DHT22;22654;51.054;3.654;2022-12-07T12:09:51;10.30;99.90
36660;DHT22;22654;51.054;3.654;2022-12-07T12:15:45;9.10;99.90
36660;DHT22;22654;51.054;3.654;2022-12-07T12:18:37;8.90;99.90
36660;DHT22;22654;51.054;3.654;2022-12-07T12:21:09;8.70;99.90
36660;DHT22;22654;51.054;3.654;2022-12-07T12:24:02;8.60;99.90
36660;DHT22;22654;51.054;3.654;2022-12-07T12:26:33;8.60;99.90
36660;DHT22;22654;51.054;3.654;2022-12-07T12:29:05;8.60;99.90
36660;DHT22;22654;51.054;3.654;2022-12-07T12:31:39;8.70;99.90
36660;DHT22;22654;51.054;3.654;2022-12-07T12:36:57;8.70;99.90
36660;DHT22;22654;51.054;3.654;2022-12-07T12:39:23;8.80;99.90
36660;DHT22;22654;51.054;3.654;2022-12-07T12:41:55;8.80;99.90
36660;DHT22;22654;51.054;3.654;2022-12-07T12:54:34;9.10;99.90
36660;DHT22;22654;51.054;3.654;2022-12-07T13:02:47;9.40;99.90
36660;DHT22;22654;51.054;3.654;2022-12-07T13:13:02;9.60;99.90
36660;DHT22;22654;51.054;3.654;2022-12-07T13:15:54;9.60;99.90
36660;DHT22;22654;51.054;3.654;2022-12-07T13:18:39;9.70;99.90
36660;DHT22;22654;51.054;3.654;2022-12-07T13:29:14;9.40;99.90
36660;DHT22;22654;51.054;3.654;2022-12-07T13:31:55;9.40;99.90
36660;DHT22;22654;51.054;3.654;2022-12-07T13:34:41;9.40;99.90
36660;DHT22;22654;51.054;3.654;2022-12-07T13:39:59;9.30;99.90
36660;DHT22;22654;51.054;3.654;2022-12-07T13:42:32;9.40;99.90
36660;DHT22;22654;51.054;3.654;2022-12-07T13:45:01;9.50;99.90
36660;DHT22;22654;51.054;3.654;2022-12-07T13:47:52;9.70;99.90
36660;DHT22;22654;51.054;3.654;2022-12-07T13:50:28;9.80;99.90
36660;DHT22;22654;51.054;3.654;2022-12-07T13:53:01;10.00;99.90
36660;DHT22;22654;51.054;3.654;2022-12-07T13:55:28;10.00;99.90
36660;DHT22;22654;51.054;3.654;2022-12-07T13:57:55;9.90;99.90
36660;DHT22;22654;51.054;3.654;2022-12-07T14:00:23;9.70;99.90
36660;DHT22;22654;51.054;3.654;2022-12-07T14:03:01;9.60;99.90
36660;DHT22;22654;51.054;3.654;2022-12-07T14:05:30;9.40;99.90
36660;DHT22;22654;51.054;3.654;2022-12-07T14:07:59;9.20;99.90
36660;DHT22;22654;51.054;3.654;2022-12-07T14:10:29;9.30;99.90
36660;DHT22;22654;51.054;3.654;2022-12-07T14:12:56;9.20;99.90
36660;DHT22;22654;51.054;3.654;2022-12-07T14:15:24;9.20;99.90
36660;DHT22;22654;51.054;3.654;2022-12-07T14:17:54;9.10;99.90
36660;DHT22;22654;51.054;3.654;2022-12-07T14:20:34;9.00;99.90
36660;DHT22;22654;51.054;3.654;2022-12-07T14:23:00;8.80;99.90
36660;DHT22;22654;51.054;3.654;2022-12-07T14:26:03;8.60;99.90
36660;DHT22;22654;51.054;3.654;2022-12-07T14:28:35;8.50;99.90
36660;DHT22;22654;51.054;3.654;2022-12-07T14:31:02;8.50;99.90
36660;DHT22;22654;51.054;3.654;2022-12-07T14:33:28;8.50;99.90
36660;DHT22;22654;51.054;3.654;2022-12-07T14:35:55;8.40;99.90
36660;DHT22;22654;51.054;3.654;2022-12-07T14:38:24;8.40;99.90
36660;DHT22;22654;51.054;3.654;2022-12-07T14:40:53;8.40;99.90
36660;DHT22;22654;51.054;3.654;2022-12-07T14:43:40;8.40;99.90
36660;DHT22;22654;51.054;3.654;2022-12-07T14:46:06;8.30;99.90
36660;DHT22;22654;51.054;3.654;2022-12-07T14:48:32;8.30;99.90
36660;DHT22;22654;51.054;3.654;2022-12-07T14:50:58;8.40;99.90
36660;DHT22;22654;51.054;3.654;2022-12-07T14:53:29;8.50;99.90
36660;DHT22;22654;51.054;3.654;2022-12-07T14:55:56;9.10;99.90
36660;DHT22;22654;51.054;3.654;2022-12-07T14:58:22;9.20;99.90
36660;DHT22;22654;51.054;3.654;2022-12-07T15:00:47;8.90;99.90
36660;DHT22;22654;51.054;3.654;2022-12-07T15:03:13;8.50;99.90
36660;DHT22;22654;51.054;3.654;2022-12-07T15:05:40;8.00;99.90
36660;DHT22;22654;51.054;3.654;2022-12-07T15:08:08;7.70;99.90
36660;DHT22;22654;51.054;3.654;2022-12-07T15:10:34;7.70;99.90
36660;DHT22;22654;51.054;3.654;2022-12-07T15:13:04;7.70;99.90
36660;DHT22;22654;51.054;3.654;2022-12-07T15:15:50;7.50;99.90
36660;DHT22;22654;51.054;3.654;2022-12-07T15:18:16;7.10;99.90
36660;DHT22;22654;51.054;3.654;2022-12-07T15:20:43;7.00;99.90
36660;DHT22;22654;51.054;3.654;2022-12-07T15:23:10;6.90;99.90
36660;DHT22;22654;51.054;3.654;2022-12-07T15:25:36;6.60;99.90
36660;DHT22;22654;51.054;3.654;2022-12-07T15:28:02;6.40;99.90
36660;DHT22;22654;51.054;3.654;2022-12-07T15:30:28;6.30;99.90
36660;DHT22;22654;51.054;3.654;2022-12-07T15:32:54;6.40;99.90
36660;DHT22;22654;51.054;3.654;2022-12-07T15:35:20;6.10;99.90
36660;DHT22;22654;51.054;3.654;2022-12-07T15:37:46;6.20;99.90
36660;DHT22;22654;51.054;3.654;2022-12-07T15:40:18;5.90;99.90
36660;DHT22;22654;51.054;3.654;2022-12-07T15:42:43;5.70;99.90
36660;DHT22;22654;51.054;3.654;2022-12-07T15:45:10;5.60;99.90
36660;DHT22;22654;51.054;3.654;2022-12-07T15:47:41;5.70;99.90
36660;DHT22;22654;51.054;3.654;2022-12-07T15:50:09;5.70;99.90
36660;DHT22;22654;51.054;3.654;2022-12-07T15:52:35;5.60;99.90
36660;DHT22;22654;51.054;3.654;2022-12-07T15:55:02;5.50;99.90
36660;DHT22;22654;51.054;3.654;2022-12-07T15:57:29;5.50;99.90
36660;DHT22;22654;51.054;3.654;2022-12-07T15:59:55;5.50;99.90
36660;DHT22;22654;51.054;3.654;2022-12-07T16:02:21;5.50;99.90
36660;DHT22;22654;51.054;3.654;2022-12-07T16:04:48;5.50;99.90
36660;DHT22;22654;51.054;3.654;2022-12-07T16:07:14;5.40;99.90
36660;DHT22;22654;51.054;3.654;2022-12-07T16:09:45;5.40;99.90
36660;DHT22;22654;51.054;3.654;2022-12-07T16:12:12;5.30;99.90
36660;DHT22;22654;51.054;3.654;2022-12-07T16:14:39;5.20;99.90
36660;DHT22;22654;51.054;3.654;2022-12-07T16:17:06;5.20;99.90
36660;DHT22;22654;51.054;3.654;2022-12-07T16:19:33;5.20;99.90
36660;DHT22;22654;51.054;3.654;2022-12-07T16:22:05;5.20;99.90
36660;DHT22;22654;51.054;3.654;2022-12-07T16:24:33;5.10;99.90
36660;DHT22;22654;51.054;3.654;2022-12-07T16:26:59;5.10;99.90
36660;DHT22;22654;51.054;3.654;2022-12-07T16:29:25;5.20;99.90
36660;DHT22;22654;51.054;3.654;2022-12-07T16:31:51;5.40;99.90
36660;DHT22;22654;51.054;3.654;2022-12-07T16:34:18;5.20;99.90
36660;DHT22;22654;51.054;3.654;2022-12-07T16:36:44;5.20;99.90
36660;DHT22;22654;51.054;3.654;2022-12-07T16:39:10;5.20;99.90
36660;DHT22;22654;51.054;3.654;2022-12-07T16:41:36;5.20;99.90
36660;DHT22;22654;51.054;3.654;2022-12-07T16:44:06;5.20;99.90
36660;DHT22;22654;51.054;3.654;2022-12-07T16:46:34;5.20;99.90
36660;DHT22;22654;51.054;3.654;2022-12-07T16:49:01;5.10;99.90
36660;DHT22;22654;51.054;3.654;2022-12-07T16:51:27;5.20;99.90
36660;DHT22;22654;51.054;3.654;2022-12-07T16:53:53;5.20;99.90
36660;DHT22;22654;51.054;3.654;2022-12-07T16:56:19;5.50;99.90
36660;DHT22;22654;51.054;3.654;2022-12-07T16:58:45;5.80;99.90
36660;DHT22;22654;51.054;3.654;2022-12-07T17:01:19;6.00;99.90
36660;DHT22;22654;51.054;3.654;2022-12-07T17:03:45;6.10;99.90
36660;DHT22;22654;51.054;3.654;2022-12-07T17:06:16;5.70;99.90
36660;DHT22;22654;51.054;3.654;2022-12-07T17:08:43;5.60;99.90
36660;DHT22;22654;51.054;3.654;2022-12-07T17:11:11;5.90;99.90
36660;DHT22;22654;51.054;3.654;2022-12-07T17:13:37;5.90;99.90
36660;DHT22;22654;51.054;3.654;2022-12-07T17:16:21;5.80;99.90
36660;DHT22;22654;51.054;3.654;2022-12-07T17:18:47;5.70;99.90
36660;DHT22;22654;51.054;3.654;2022-12-07T17:21:13;5.60;99.90
36660;DHT22;22654;51.054;3.654;2022-12-07T17:23:38;5.50;99.90
36660;DHT22;22654;51.054;3.654;2022-12-07T17:26:16;5.30;99.90
36660;DHT22;22654;51.054;3.654;2022-12-07T17:28:43;5.30;99.90
36660;DHT22;22654;51.054;3.654;2022-12-07T17:31:22;5.40;99.90
36660;DHT22;22654;51.054;3.654;2022-12-07T17:33:48;5.30;99.90
36660;DHT22;22654;51.054;3.654;2022-12-07T17:36:17;5.20;99.90
36660;DHT22;22654;51.054;3.654;2022-12-07T17:38:43;5.00;99.90
36660;DHT22;22654;51.054;3.654;2022-12-07T17:44:02;4.70;99.90
36660;DHT22;22654;51.054;3.654;2022-12-07T17:46:28;4.70;99.90
36660;DHT22;22654;51.054;3.654;2022-12-07T17:48:54;4.60;99.90
36660;DHT22;22654;51.054;3.654;2022-12-07T17:51:20;4.40;99.90